sensor_id;sensor_type;location;lat;lon;timestamp;temperature;humidity
57833;DHT22;43667;53.036;6.740;2023-07-29T00:07:00;17.90;99.90
57833;DHT22;43667;53.036;6.740;2023-07-29T00:09:26;17.90;99.90
57833;DHT22;43667;53.036;6.740;2023-07-29T00:11:51;17.90;99.90
57833;DHT22;43667;53.036;6.740;2023-07-29T00:14:17;17.90;99.90
57833;DHT22;43667;53.036;6.740;2023-07-29T00:16:42;17.90;99.90
57833;DHT22;43667;53.036;6.740;2023-07-29T00:19:08;17.80;99.90
57833;DHT22;43667;53.036;6.740;2023-07-29T00:21:34;17.80;99.90
57833;DHT22;43667;53.036;6.740;2023-07-29T00:23:59;17.80;99.90
57833;DHT22;43667;53.036;6.740;2023-07-29T00:26:26;17.80;99.90
57833;DHT22;43667;53.036;6.740;2023-07-29T00:28:55;17.80;99.90
57833;DHT22;43667;53.036;6.740;2023-07-29T00:31:20;17.80;99.90
57833;DHT22;43667;53.036;6.740;2023-07-29T00:33:46;17.80;99.90
57833;DHT22;43667;53.036;6.740;2023-07-29T00:36:11;17.80;99.90
57833;DHT22;43667;53.036;6.740;2023-07-29T00:38:37;17.70;99.90
57833;DHT22;43667;53.036;6.740;2023-07-29T00:41:03;17.70;99.90
57833;DHT22;43667;53.036;6.740;2023-07-29T00:43:29;17.70;99.90
57833;DHT22;43667;53.036;6.740;2023-07-29T00:45:55;17.70;99.90
57833;DHT22;43667;53.036;6.740;2023-07-29T00:48:22;17.60;99.90
57833;DHT22;43667;53.036;6.740;2023-07-29T00:50:49;17.60;99.90
57833;DHT22;43667;53.036;6.740;2023-07-29T00:53:14;17.50;99.90
57833;DHT22;43667;53.036;6.740;2023-07-29T00:55:41;17.50;99.90
57833;DHT22;43667;53.036;6.740;2023-07-29T00:58:07;17.50;99.90
57833;DHT22;43667;53.036;6.740;2023-07-29T01:00:33;17.50;99.90
57833;DHT22;43667;53.036;6.740;2023-07-29T01:02:58;17.40;99.90
57833;DHT22;43667;53.036;6.740;2023-07-29T01:05:28;17.40;99.90
57833;DHT22;43667;53.036;6.740;2023-07-29T01:08:08;17.40;99.90
57833;DHT22;43667;53.036;6.740;2023-07-29T01:13:10;17.30;99.90
57833;DHT22;43667;53.036;6.740;2023-07-29T01:16:02;17.30;99.90
57833;DHT22;43667;53.036;6.740;2023-07-29T01:18:32;17.30;99.90
57833;DHT22;43667;53.036;6.740;2023-07-29T01:21:07;17.20;99.90
57833;DHT22;43667;53.036;6.740;2023-07-29T01:23:34;17.20;99.90
57833;DHT22;43667;53.036;6.740;2023-07-29T01:26:01;17.20;99.90
57833;DHT22;43667;53.036;6.740;2023-07-29T01:28:27;17.10;99.90
57833;DHT22;43667;53.036;6.740;2023-07-29T01:31:27;17.10;99.90
57833;DHT22;43667;53.036;6.740;2023-07-29T01:34:10;17.10;99.90
57833;DHT22;43667;53.036;6.740;2023-07-29T01:36:37;17.10;99.90
57833;DHT22;43667;53.036;6.740;2023-07-29T01:39:06;17.00;99.90
57833;DHT22;43667;53.036;6.740;2023-07-29T01:41:33;17.00;99.90
57833;DHT22;43667;53.036;6.740;2023-07-29T01:43:59;17.00;99.90
57833;DHT22;43667;53.036;6.740;2023-07-29T01:46:25;17.00;99.90
57833;DHT22;43667;53.036;6.740;2023-07-29T01:48:51;16.90;99.90
57833;DHT22;43667;53.036;6.740;2023-07-29T01:51:16;16.90;99.90
57833;DHT22;43667;53.036;6.740;2023-07-29T01:53:42;16.90;99.90
57833;DHT22;43667;53.036;6.740;2023-07-29T01:56:08;16.90;99.90
57833;DHT22;43667;53.036;6.740;2023-07-29T01:58:33;16.90;99.90
57833;DHT22;43667;53.036;6.740;2023-07-29T02:00:59;16.80;99.90
57833;DHT22;43667;53.036;6.740;2023-07-29T02:03:24;16.80;99.90
57833;DHT22;43667;53.036;6.740;2023-07-29T02:05:50;16.80;99.90
57833;DHT22;43667;53.036;6.740;2023-07-29T02:08:16;16.80;99.90
57833;DHT22;43667;53.036;6.740;2023-07-29T02:10:41;16.70;99.90
57833;DHT22;43667;53.036;6.740;2023-07-29T02:13:10;16.70;99.90
57833;DHT22;43667;53.036;6.740;2023-07-29T02:15:36;16.70;99.90
57833;DHT22;43667;53.036;6.740;2023-07-29T02:18:01;16.70;99.90
57833;DHT22;43667;53.036;6.740;2023-07-29T02:20:29;16.60;99.90
57833;DHT22;43667;53.036;6.740;2023-07-29T02:22:54;16.60;99.90
57833;DHT22;43667;53.036;6.740;2023-07-29T02:25:20;16.60;99.90
57833;DHT22;43667;53.036;6.740;2023-07-29T02:27:45;16.60;99.90
57833;DHT22;43667;53.036;6.740;2023-07-29T02:30:11;16.60;99.90
57833;DHT22;43667;53.036;6.740;2023-07-29T02:32:37;16.60;99.90
57833;DHT22;43667;53.036;6.740;2023-07-29T02:35:04;16.60;99.90
57833;DHT22;43667;53.036;6.740;2023-07-29T02:37:30;16.70;99.90
57833;DHT22;43667;53.036;6.740;2023-07-29T02:39:56;16.70;99.90
57833;DHT22;43667;53.036;6.740;2023-07-29T02:42:21;16.70;99.90
57833;DHT22;43667;53.036;6.740;2023-07-29T02:44:47;16.60;99.90
57833;DHT22;43667;53.036;6.740;2023-07-29T02:47:12;16.60;99.90
57833;DHT22;43667;53.036;6.740;2023-07-29T02:49:38;16.60;99.90
57833;DHT22;43667;53.036;6.740;2023-07-29T02:52:04;16.60;99.90
57833;DHT22;43667;53.036;6.740;2023-07-29T02:54:30;16.60;99.90
57833;DHT22;43667;53.036;6.740;2023-07-29T02:56:55;16.60;99.90
57833;DHT22;43667;53.036;6.740;2023-07-29T02:59:21;16.60;99.90
57833;DHT22;43667;53.036;6.740;2023-07-29T03:01:47;16.50;99.90
57833;DHT22;43667;53.036;6.740;2023-07-29T03:04:12;16.50;99.90
57833;DHT22;43667;53.036;6.740;2023-07-29T03:06:38;16.50;99.90
57833;DHT22;43667;53.036;6.740;2023-07-29T03:09:04;16.50;99.90
57833;DHT22;43667;53.036;6.740;2023-07-29T03:11:30;16.50;99.90
57833;DHT22;43667;53.036;6.740;2023-07-29T03:13:56;16.50;99.90
57833;DHT22;43667;53.036;6.740;2023-07-29T03:16:22;16.50;99.90
57833;DHT22;43667;53.036;6.740;2023-07-29T03:18:48;16.50;99.90
57833;DHT22;43667;53.036;6.740;2023-07-29T03:21:14;16.50;99.90
57833;DHT22;43667;53.036;6.740;2023-07-29T03:23:39;16.50;99.90
57833;DHT22;43667;53.036;6.740;2023-07-29T03:26:05;16.40;99.90
57833;DHT22;43667;53.036;6.740;2023-07-29T03:28:39;16.40;99.90
57833;DHT22;43667;53.036;6.740;2023-07-29T03:31:04;16.40;99.90
57833;DHT22;43667;53.036;6.740;2023-07-29T03:33:30;16.40;99.90
57833;DHT22;43667;53.036;6.740;2023-07-29T03:35:56;16.30;99.90
57833;DHT22;43667;53.036;6.740;2023-07-29T03:38:21;16.30;99.90
57833;DHT22;43667;53.036;6.740;2023-07-29T03:40:47;16.30;99.90
57833;DHT22;43667;53.036;6.740;2023-07-29T03:43:13;16.30;99.90
57833;DHT22;43667;53.036;6.740;2023-07-29T03:45:39;16.30;99.90
57833;DHT22;43667;53.036;6.740;2023-07-29T03:48:05;16.30;99.90
57833;DHT22;43667;53.036;6.740;2023-07-29T03:50:32;16.20;99.90
57833;DHT22;43667;53.036;6.740;2023-07-29T03:52:58;16.20;99.90
57833;DHT22;43667;53.036;6.740;2023-07-29T03:55:24;16.20;99.90
57833;DHT22;43667;53.036;6.740;2023-07-29T03:57:50;16.20;99.90
57833;DHT22;43667;53.036;6.740;2023-07-29T04:00:15;16.20;99.90
57833;DHT22;43667;53.036;6.740;2023-07-29T04:02:42;16.20;99.90
57833;DHT22;43667;53.036;6.740;2023-07-29T04:05:08;16.10;99.90
57833;DHT22;43667;53.036;6.740;2023-07-29T04:07:34;16.10;99.90
57833;DHT22;43667;53.036;6.740;2023-07-29T04:10:00;16.10;99.90
57833;DHT22;43667;53.036;6.740;2023-07-29T04:12:26;16.10;99.90
57833;DHT22;43667;53.036;6.740;2023-07-29T04:14:52;16.10;99.90
57833;DHT22;43667;53.036;6.740;2023-07-29T04:17:17;16.10;99.90
57833;DHT22;43667;53.036;6.740;2023-07-29T04:19:43;16.10;99.90
57833;DHT22;43667;53.036;6.740;2023-07-29T04:22:08;16.10;99.90
57833;DHT22;43667;53.036;6.740;2023-07-29T04:24:34;16.10;99.90
57833;DHT22;43667;53.036;6.740;2023-07-29T04:27:00;16.10;99.90
57833;DHT22;43667;53.036;6.740;2023-07-29T04:29:25;16.10;99.90
57833;DHT22;43667;53.036;6.740;2023-07-29T04:31:51;16.10;99.90
57833;DHT22;43667;53.036;6.740;2023-07-29T04:34:20;16.10;99.90
57833;DHT22;43667;53.036;6.740;2023-07-29T04:36:46;16.10;99.90
57833;DHT22;43667;53.036;6.740;2023-07-29T04:39:12;16.10;99.90
57833;DHT22;43667;53.036;6.740;2023-07-29T04:41:37;16.20;99.90
57833;DHT22;43667;53.036;6.740;2023-07-29T04:44:03;16.20;99.90
57833;DHT22;43667;53.036;6.740;2023-07-29T04:46:29;16.20;99.90
57833;DHT22;43667;53.036;6.740;2023-07-29T04:48:55;16.30;99.90
57833;DHT22;43667;53.036;6.740;2023-07-29T04:51:21;16.30;99.90
57833;DHT22;43667;53.036;6.740;2023-07-29T04:53:47;16.40;99.90
57833;DHT22;43667;53.036;6.740;2023-07-29T04:56:13;16.40;99.90
57833;DHT22;43667;53.036;6.740;2023-07-29T04:58:38;16.50;99.90
57833;DHT22;43667;53.036;6.740;2023-07-29T05:01:04;16.50;99.90
57833;DHT22;43667;53.036;6.740;2023-07-29T05:03:30;16.50;99.90
57833;DHT22;43667;53.036;6.740;2023-07-29T05:05:56;16.50;99.90
57833;DHT22;43667;53.036;6.740;2023-07-29T05:08:22;16.50;99.90
57833;DHT22;43667;53.036;6.740;2023-07-29T05:10:51;16.60;99.90
57833;DHT22;43667;53.036;6.740;2023-07-29T05:13:18;16.60;99.90
57833;DHT22;43667;53.036;6.740;2023-07-29T05:15:44;16.60;99.90
57833;DHT22;43667;53.036;6.740;2023-07-29T05:18:10;16.60;99.90
57833;DHT22;43667;53.036;6.740;2023-07-29T05:20:35;16.60;99.90
57833;DHT22;43667;53.036;6.740;2023-07-29T05:23:01;16.70;99.90
57833;DHT22;43667;53.036;6.740;2023-07-29T05:25:27;16.70;99.90
57833;DHT22;43667;53.036;6.740;2023-07-29T05:27:52;16.70;99.90
57833;DHT22;43667;53.036;6.740;2023-07-29T05:30:18;16.70;99.90
57833;DHT22;43667;53.036;6.740;2023-07-29T05:32:44;16.70;99.90
57833;DHT22;43667;53.036;6.740;2023-07-29T05:35:10;16.70;99.90
57833;DHT22;43667;53.036;6.740;2023-07-29T05:37:39;16.80;99.90
57833;DHT22;43667;53.036;6.740;2023-07-29T05:40:08;16.80;99.90
57833;DHT22;43667;53.036;6.740;2023-07-29T05:42:36;16.80;99.90
57833;DHT22;43667;53.036;6.740;2023-07-29T05:45:02;16.90;99.90
57833;DHT22;43667;53.036;6.740;2023-07-29T05:47:29;16.90;99.90
57833;DHT22;43667;53.036;6.740;2023-07-29T05:49:54;16.90;99.90
57833;DHT22;43667;53.036;6.740;2023-07-29T05:52:20;17.00;99.90
57833;DHT22;43667;53.036;6.740;2023-07-29T05:54:45;17.00;99.90
57833;DHT22;43667;53.036;6.740;2023-07-29T05:57:11;17.00;99.90
57833;DHT22;43667;53.036;6.740;2023-07-29T05:59:37;17.00;99.90
57833;DHT22;43667;53.036;6.740;2023-07-29T06:02:03;17.00;99.90
57833;DHT22;43667;53.036;6.740;2023-07-29T06:04:29;17.10;99.90
57833;DHT22;43667;53.036;6.740;2023-07-29T06:06:54;17.10;99.90
57833;DHT22;43667;53.036;6.740;2023-07-29T06:09:22;17.10;99.90
57833;DHT22;43667;53.036;6.740;2023-07-29T06:11:47;17.10;99.90
57833;DHT22;43667;53.036;6.740;2023-07-29T06:14:13;17.10;99.90
57833;DHT22;43667;53.036;6.740;2023-07-29T06:16:38;17.20;99.90
57833;DHT22;43667;53.036;6.740;2023-07-29T06:19:04;17.30;99.90
57833;DHT22;43667;53.036;6.740;2023-07-29T06:21:30;17.30;99.90
57833;DHT22;43667;53.036;6.740;2023-07-29T06:23:56;17.30;99.90
57833;DHT22;43667;53.036;6.740;2023-07-29T06:26:21;17.40;99.90
57833;DHT22;43667;53.036;6.740;2023-07-29T06:28:47;17.40;99.90
57833;DHT22;43667;53.036;6.740;2023-07-29T06:31:13;17.40;99.90
57833;DHT22;43667;53.036;6.740;2023-07-29T06:33:38;17.40;99.90
57833;DHT22;43667;53.036;6.740;2023-07-29T06:36:04;17.40;99.90
57833;DHT22;43667;53.036;6.740;2023-07-29T06:38:30;17.50;99.90
57833;DHT22;43667;53.036;6.740;2023-07-29T06:40:55;17.60;99.90
57833;DHT22;43667;53.036;6.740;2023-07-29T06:43:21;17.80;99.90
57833;DHT22;43667;53.036;6.740;2023-07-29T06:45:47;18.10;99.90
57833;DHT22;43667;53.036;6.740;2023-07-29T06:48:12;18.30;99.90
57833;DHT22;43667;53.036;6.740;2023-07-29T06:50:38;18.50;99.90
57833;DHT22;43667;53.036;6.740;2023-07-29T06:53:03;18.50;99.90
57833;DHT22;43667;53.036;6.740;2023-07-29T06:55:29;18.50;99.90
57833;DHT22;43667;53.036;6.740;2023-07-29T06:57:55;18.60;99.90
57833;DHT22;43667;53.036;6.740;2023-07-29T07:00:20;18.60;99.90
57833;DHT22;43667;53.036;6.740;2023-07-29T07:02:46;18.60;99.90
57833;DHT22;43667;53.036;6.740;2023-07-29T07:05:11;18.60;99.90
57833;DHT22;43667;53.036;6.740;2023-07-29T07:07:37;18.70;99.90
57833;DHT22;43667;53.036;6.740;2023-07-29T07:10:03;18.80;99.90
57833;DHT22;43667;53.036;6.740;2023-07-29T07:12:29;18.90;99.90
57833;DHT22;43667;53.036;6.740;2023-07-29T07:14:54;19.10;99.90
57833;DHT22;43667;53.036;6.740;2023-07-29T07:17:20;19.10;99.90
57833;DHT22;43667;53.036;6.740;2023-07-29T07:19:46;19.20;99.90
57833;DHT22;43667;53.036;6.740;2023-07-29T07:22:11;19.10;99.90
57833;DHT22;43667;53.036;6.740;2023-07-29T07:24:37;19.10;99.90
57833;DHT22;43667;53.036;6.740;2023-07-29T07:27:03;19.20;99.90
57833;DHT22;43667;53.036;6.740;2023-07-29T07:29:28;19.40;99.90
57833;DHT22;43667;53.036;6.740;2023-07-29T07:31:56;19.50;99.90
57833;DHT22;43667;53.036;6.740;2023-07-29T07:34:22;19.50;99.90
57833;DHT22;43667;53.036;6.740;2023-07-29T07:36:47;19.50;99.90
57833;DHT22;43667;53.036;6.740;2023-07-29T07:39:14;19.50;99.90
57833;DHT22;43667;53.036;6.740;2023-07-29T07:41:41;19.60;99.90
57833;DHT22;43667;53.036;6.740;2023-07-29T07:44:07;19.70;99.90
57833;DHT22;43667;53.036;6.740;2023-07-29T07:46:32;19.70;99.90
57833;DHT22;43667;53.036;6.740;2023-07-29T07:48:58;19.70;99.90
57833;DHT22;43667;53.036;6.740;2023-07-29T07:51:24;19.80;99.90
57833;DHT22;43667;53.036;6.740;2023-07-29T07:53:49;19.80;99.90
57833;DHT22;43667;53.036;6.740;2023-07-29T07:56:15;19.90;99.90
57833;DHT22;43667;53.036;6.740;2023-07-29T07:58:41;20.10;99.90
57833;DHT22;43667;53.036;6.740;2023-07-29T08:01:08;20.30;99.90
57833;DHT22;43667;53.036;6.740;2023-07-29T08:03:35;20.40;99.90
57833;DHT22;43667;53.036;6.740;2023-07-29T08:06:01;20.50;99.90
57833;DHT22;43667;53.036;6.740;2023-07-29T08:08:27;20.50;99.90
57833;DHT22;43667;53.036;6.740;2023-07-29T08:10:54;20.50;99.90
57833;DHT22;43667;53.036;6.740;2023-07-29T08:13:20;20.60;99.90
57833;DHT22;43667;53.036;6.740;2023-07-29T08:15:51;20.80;99.90
57833;DHT22;43667;53.036;6.740;2023-07-29T08:18:17;20.90;99.90
57833;DHT22;43667;53.036;6.740;2023-07-29T08:20:53;21.00;99.90
57833;DHT22;43667;53.036;6.740;2023-07-29T08:23:20;21.10;99.90
57833;DHT22;43667;53.036;6.740;2023-07-29T08:25:54;21.20;99.90
57833;DHT22;43667;53.036;6.740;2023-07-29T08:28:22;21.30;99.90
57833;DHT22;43667;53.036;6.740;2023-07-29T08:30:47;21.40;99.90
57833;DHT22;43667;53.036;6.740;2023-07-29T08:33:13;21.40;99.90
57833;DHT22;43667;53.036;6.740;2023-07-29T08:35:38;21.40;99.90
57833;DHT22;43667;53.036;6.740;2023-07-29T08:38:04;21.50;99.90
57833;DHT22;43667;53.036;6.740;2023-07-29T08:40:30;21.70;99.90
57833;DHT22;43667;53.036;6.740;2023-07-29T08:42:58;21.90;99.90
57833;DHT22;43667;53.036;6.740;2023-07-29T08:45:25;22.10;99.90
57833;DHT22;43667;53.036;6.740;2023-07-29T08:47:54;22.10;99.90
57833;DHT22;43667;53.036;6.740;2023-07-29T08:50:24;22.00;99.90
57833;DHT22;43667;53.036;6.740;2023-07-29T08:52:51;22.20;99.90
57833;DHT22;43667;53.036;6.740;2023-07-29T08:55:18;22.30;99.90
57833;DHT22;43667;53.036;6.740;2023-07-29T08:57:44;22.40;99.90
57833;DHT22;43667;53.036;6.740;2023-07-29T09:00:11;22.60;99.90
57833;DHT22;43667;53.036;6.740;2023-07-29T09:02:37;22.70;99.90
57833;DHT22;43667;53.036;6.740;2023-07-29T09:05:03;22.80;99.90
57833;DHT22;43667;53.036;6.740;2023-07-29T09:07:29;22.90;99.90
57833;DHT22;43667;53.036;6.740;2023-07-29T09:09:54;22.80;99.90
57833;DHT22;43667;53.036;6.740;2023-07-29T09:12:20;22.70;99.90
57833;DHT22;43667;53.036;6.740;2023-07-29T09:14:46;22.50;99.90
57833;DHT22;43667;53.036;6.740;2023-07-29T09:17:12;22.20;99.90
57833;DHT22;43667;53.036;6.740;2023-07-29T09:19:37;22.20;99.90
57833;DHT22;43667;53.036;6.740;2023-07-29T09:22:03;22.10;99.90
57833;DHT22;43667;53.036;6.740;2023-07-29T09:24:29;22.20;99.90
57833;DHT22;43667;53.036;6.740;2023-07-29T09:26:57;22.40;99.90
57833;DHT22;43667;53.036;6.740;2023-07-29T09:29:23;22.50;99.90
57833;DHT22;43667;53.036;6.740;2023-07-29T09:31:49;22.80;99.90
57833;DHT22;43667;53.036;6.740;2023-07-29T09:34:15;23.00;99.90
57833;DHT22;43667;53.036;6.740;2023-07-29T09:36:42;23.20;99.90
57833;DHT22;43667;53.036;6.740;2023-07-29T09:39:11;23.40;99.90
57833;DHT22;43667;53.036;6.740;2023-07-29T09:41:37;23.60;99.90
57833;DHT22;43667;53.036;6.740;2023-07-29T09:44:04;23.60;99.90
57833;DHT22;43667;53.036;6.740;2023-07-29T09:46:35;23.50;99.90
57833;DHT22;43667;53.036;6.740;2023-07-29T09:49:05;23.40;99.90
57833;DHT22;43667;53.036;6.740;2023-07-29T09:51:31;23.50;99.90
57833;DHT22;43667;53.036;6.740;2023-07-29T09:53:56;23.50;99.90
57833;DHT22;43667;53.036;6.740;2023-07-29T09:56:26;23.40;99.90
57833;DHT22;43667;53.036;6.740;2023-07-29T09:58:52;23.60;99.90
57833;DHT22;43667;53.036;6.740;2023-07-29T10:01:18;23.80;99.90
57833;DHT22;43667;53.036;6.740;2023-07-29T10:03:44;23.90;99.90
57833;DHT22;43667;53.036;6.740;2023-07-29T10:06:11;23.90;99.90
57833;DHT22;43667;53.036;6.740;2023-07-29T10:08:37;23.90;99.90
57833;DHT22;43667;53.036;6.740;2023-07-29T10:11:06;23.90;99.90
57833;DHT22;43667;53.036;6.740;2023-07-29T10:13:32;24.00;99.90
57833;DHT22;43667;53.036;6.740;2023-07-29T10:15:59;24.00;99.90
57833;DHT22;43667;53.036;6.740;2023-07-29T10:18:28;23.80;99.90
57833;DHT22;43667;53.036;6.740;2023-07-29T10:20:54;23.70;99.90
57833;DHT22;43667;53.036;6.740;2023-07-29T10:23:22;23.80;99.90
57833;DHT22;43667;53.036;6.740;2023-07-29T10:25:52;24.00;99.90
57833;DHT22;43667;53.036;6.740;2023-07-29T10:28:22;24.10;99.90
57833;DHT22;43667;53.036;6.740;2023-07-29T10:30:51;24.10;99.90
57833;DHT22;43667;53.036;6.740;2023-07-29T10:33:17;24.20;99.90
57833;DHT22;43667;53.036;6.740;2023-07-29T10:35:42;24.20;99.90
57833;DHT22;43667;53.036;6.740;2023-07-29T10:38:08;24.10;99.90
57833;DHT22;43667;53.036;6.740;2023-07-29T10:43:11;24.10;99.90
57833;DHT22;43667;53.036;6.740;2023-07-29T10:45:39;24.10;99.90
57833;DHT22;43667;53.036;6.740;2023-07-29T10:51:28;24.30;99.90
57833;DHT22;43667;53.036;6.740;2023-07-29T10:54:11;24.30;99.90
57833;DHT22;43667;53.036;6.740;2023-07-29T10:56:40;24.20;99.90
57833;DHT22;43667;53.036;6.740;2023-07-29T11:01:42;23.80;99.90
57833;DHT22;43667;53.036;6.740;2023-07-29T11:12:51;23.70;99.90
57833;DHT22;43667;53.036;6.740;2023-07-29T11:15:22;23.60;99.90
57833;DHT22;43667;53.036;6.740;2023-07-29T11:17:56;23.50;99.90
57833;DHT22;43667;53.036;6.740;2023-07-29T11:20:30;23.40;99.90
57833;DHT22;43667;53.036;6.740;2023-07-29T11:22:58;23.20;99.90
57833;DHT22;43667;53.036;6.740;2023-07-29T11:25:26;23.10;99.90
57833;DHT22;43667;53.036;6.740;2023-07-29T11:27:54;22.90;99.90
57833;DHT22;43667;53.036;6.740;2023-07-29T11:30:20;22.60;99.90
57833;DHT22;43667;53.036;6.740;2023-07-29T11:32:47;22.40;99.90
57833;DHT22;43667;53.036;6.740;2023-07-29T11:35:14;22.20;99.90
57833;DHT22;43667;53.036;6.740;2023-07-29T11:37:41;22.10;99.90
57833;DHT22;43667;53.036;6.740;2023-07-29T11:40:08;22.00;99.90
57833;DHT22;43667;53.036;6.740;2023-07-29T11:42:36;22.10;99.90
57833;DHT22;43667;53.036;6.740;2023-07-29T11:45:05;22.30;99.90
57833;DHT22;43667;53.036;6.740;2023-07-29T11:47:35;22.50;99.90
57833;DHT22;43667;53.036;6.740;2023-07-29T11:50:03;22.60;99.90
57833;DHT22;43667;53.036;6.740;2023-07-29T11:52:31;22.80;99.90
57833;DHT22;43667;53.036;6.740;2023-07-29T11:54:58;23.00;99.90
57833;DHT22;43667;53.036;6.740;2023-07-29T11:57:24;23.30;99.90
57833;DHT22;43667;53.036;6.740;2023-07-29T11:59:49;23.50;99.90
57833;DHT22;43667;53.036;6.740;2023-07-29T12:02:17;23.50;99.90
57833;DHT22;43667;53.036;6.740;2023-07-29T12:04:47;23.50;99.90
57833;DHT22;43667;53.036;6.740;2023-07-29T12:07:14;23.50;99.90
57833;DHT22;43667;53.036;6.740;2023-07-29T12:09:41;23.50;99.90
57833;DHT22;43667;53.036;6.740;2023-07-29T12:12:07;23.50;99.90
57833;DHT22;43667;53.036;6.740;2023-07-29T12:14:34;23.30;99.90
57833;DHT22;43667;53.036;6.740;2023-07-29T12:17:00;23.10;99.90
57833;DHT22;43667;53.036;6.740;2023-07-29T12:19:35;23.00;99.90
57833;DHT22;43667;53.036;6.740;2023-07-29T12:22:02;23.00;99.90
57833;DHT22;43667;53.036;6.740;2023-07-29T12:24:30;22.90;99.90
57833;DHT22;43667;53.036;6.740;2023-07-29T12:26:55;22.90;99.90
57833;DHT22;43667;53.036;6.740;2023-07-29T12:29:21;23.00;99.90
57833;DHT22;43667;53.036;6.740;2023-07-29T12:31:46;23.20;99.90
57833;DHT22;43667;53.036;6.740;2023-07-29T12:34:19;23.30;99.90
57833;DHT22;43667;53.036;6.740;2023-07-29T12:36:50;23.30;99.90
57833;DHT22;43667;53.036;6.740;2023-07-29T12:39:24;23.10;99.90
57833;DHT22;43667;53.036;6.740;2023-07-29T12:41:50;22.80;99.90
57833;DHT22;43667;53.036;6.740;2023-07-29T12:44:17;22.70;99.90
57833;DHT22;43667;53.036;6.740;2023-07-29T12:46:43;22.80;99.90
57833;DHT22;43667;53.036;6.740;2023-07-29T12:49:08;23.00;99.90
57833;DHT22;43667;53.036;6.740;2023-07-29T12:51:34;23.20;99.90
57833;DHT22;43667;53.036;6.740;2023-07-29T12:54:01;23.50;99.90
57833;DHT22;43667;53.036;6.740;2023-07-29T12:56:28;23.70;99.90
57833;DHT22;43667;53.036;6.740;2023-07-29T12:58:54;24.00;99.90
57833;DHT22;43667;53.036;6.740;2023-07-29T13:01:19;24.20;99.90
57833;DHT22;43667;53.036;6.740;2023-07-29T13:03:45;24.30;99.90
57833;DHT22;43667;53.036;6.740;2023-07-29T13:06:11;24.30;99.90
57833;DHT22;43667;53.036;6.740;2023-07-29T13:08:37;24.30;99.90
57833;DHT22;43667;53.036;6.740;2023-07-29T13:11:03;24.40;99.90
57833;DHT22;43667;53.036;6.740;2023-07-29T13:13:29;24.50;99.90
57833;DHT22;43667;53.036;6.740;2023-07-29T13:15:58;24.40;99.90
57833;DHT22;43667;53.036;6.740;2023-07-29T13:18:23;24.40;99.90
57833;DHT22;43667;53.036;6.740;2023-07-29T13:20:49;24.70;99.90
57833;DHT22;43667;53.036;6.740;2023-07-29T13:23:15;24.90;99.90
57833;DHT22;43667;53.036;6.740;2023-07-29T13:25:41;25.30;99.90
57833;DHT22;43667;53.036;6.740;2023-07-29T13:28:08;25.40;99.90
57833;DHT22;43667;53.036;6.740;2023-07-29T13:30:34;25.30;98.80
57833;DHT22;43667;53.036;6.740;2023-07-29T13:32:59;25.20;95.30
57833;DHT22;43667;53.036;6.740;2023-07-29T13:35:25;25.20;96.20
57833;DHT22;43667;53.036;6.740;2023-07-29T13:37:51;25.20;95.30
57833;DHT22;43667;53.036;6.740;2023-07-29T13:40:16;25.20;92.30
57833;DHT22;43667;53.036;6.740;2023-07-29T13:42:42;25.20;94.00
57833;DHT22;43667;53.036;6.740;2023-07-29T13:45:08;25.20;92.30
57833;DHT22;43667;53.036;6.740;2023-07-29T13:47:34;25.30;90.20
57833;DHT22;43667;53.036;6.740;2023-07-29T13:50:00;25.30;92.10
57833;DHT22;43667;53.036;6.740;2023-07-29T13:52:26;25.40;91.70
57833;DHT22;43667;53.036;6.740;2023-07-29T13:54:52;25.40;91.60
57833;DHT22;43667;53.036;6.740;2023-07-29T13:57:17;25.30;92.10
57833;DHT22;43667;53.036;6.740;2023-07-29T13:59:43;25.30;93.30
57833;DHT22;43667;53.036;6.740;2023-07-29T14:02:08;25.30;95.40
57833;DHT22;43667;53.036;6.740;2023-07-29T14:04:34;25.20;95.30
57833;DHT22;43667;53.036;6.740;2023-07-29T14:07:00;25.20;94.90
57833;DHT22;43667;53.036;6.740;2023-07-29T14:09:26;25.20;96.50
57833;DHT22;43667;53.036;6.740;2023-07-29T14:11:54;25.10;94.90
57833;DHT22;43667;53.036;6.740;2023-07-29T14:14:20;25.20;96.60
57833;DHT22;43667;53.036;6.740;2023-07-29T14:16:45;25.20;91.70
57833;DHT22;43667;53.036;6.740;2023-07-29T14:19:12;25.40;90.90
57833;DHT22;43667;53.036;6.740;2023-07-29T14:21:38;25.50;83.00
57833;DHT22;43667;53.036;6.740;2023-07-29T14:24:03;25.50;81.00
57833;DHT22;43667;53.036;6.740;2023-07-29T14:26:29;25.40;78.00
57833;DHT22;43667;53.036;6.740;2023-07-29T14:28:55;25.50;86.60
57833;DHT22;43667;53.036;6.740;2023-07-29T14:31:20;25.60;88.90
57833;DHT22;43667;53.036;6.740;2023-07-29T14:33:46;25.50;83.40
57833;DHT22;43667;53.036;6.740;2023-07-29T14:36:11;25.50;83.50
57833;DHT22;43667;53.036;6.740;2023-07-29T14:38:37;25.30;87.20
57833;DHT22;43667;53.036;6.740;2023-07-29T14:41:03;25.20;91.50
57833;DHT22;43667;53.036;6.740;2023-07-29T14:43:30;25.10;91.10
57833;DHT22;43667;53.036;6.740;2023-07-29T14:45:56;25.00;91.50
57833;DHT22;43667;53.036;6.740;2023-07-29T14:48:22;24.90;91.90
57833;DHT22;43667;53.036;6.740;2023-07-29T14:50:48;24.80;94.40
57833;DHT22;43667;53.036;6.740;2023-07-29T14:53:14;24.70;96.90
57833;DHT22;43667;53.036;6.740;2023-07-29T14:55:39;24.70;96.10
57833;DHT22;43667;53.036;6.740;2023-07-29T14:58:05;24.60;94.00
57833;DHT22;43667;53.036;6.740;2023-07-29T15:00:30;24.40;94.50
57833;DHT22;43667;53.036;6.740;2023-07-29T15:02:56;24.30;97.30
57833;DHT22;43667;53.036;6.740;2023-07-29T15:05:21;24.30;96.20
57833;DHT22;43667;53.036;6.740;2023-07-29T15:07:47;24.30;97.10
57833;DHT22;43667;53.036;6.740;2023-07-29T15:10:17;24.20;96.40
57833;DHT22;43667;53.036;6.740;2023-07-29T15:12:43;24.20;97.10
57833;DHT22;43667;53.036;6.740;2023-07-29T15:15:10;24.20;97.30
57833;DHT22;43667;53.036;6.740;2023-07-29T15:17:35;24.30;98.30
57833;DHT22;43667;53.036;6.740;2023-07-29T15:20:02;24.30;98.00
57833;DHT22;43667;53.036;6.740;2023-07-29T15:22:29;24.10;97.90
57833;DHT22;43667;53.036;6.740;2023-07-29T15:24:54;24.00;98.60
57833;DHT22;43667;53.036;6.740;2023-07-29T15:27:20;23.90;98.60
57833;DHT22;43667;53.036;6.740;2023-07-29T15:29:45;23.90;99.90
57833;DHT22;43667;53.036;6.740;2023-07-29T15:32:11;24.10;99.90
57833;DHT22;43667;53.036;6.740;2023-07-29T15:34:37;24.10;99.30
57833;DHT22;43667;53.036;6.740;2023-07-29T15:37:03;24.10;99.90
57833;DHT22;43667;53.036;6.740;2023-07-29T15:39:29;24.10;99.90
57833;DHT22;43667;53.036;6.740;2023-07-29T15:41:55;24.10;99.90
57833;DHT22;43667;53.036;6.740;2023-07-29T15:44:21;24.30;99.90
57833;DHT22;43667;53.036;6.740;2023-07-29T15:46:47;24.60;99.10
57833;DHT22;43667;53.036;6.740;2023-07-29T15:49:12;25.10;95.50
57833;DHT22;43667;53.036;6.740;2023-07-29T15:51:38;25.30;94.20